My Meet Scores
Erica Dice, Flipstar Gymnastics Academy - MyMeetScores.com
Top100 | Top Teams | Upcoming Meets | Completed Meets | Latest | Add Scores | Help| Support | Bookmark and Share

Erica Dice, Flipstar Gymnastics Academy
Personal Bests
LevelVault BarsBeamFloorAA
9.2508.700 7.9508.65034.550
49.5008.850 8.5759.25036.175
59.3759.000 8.8508.95035.800
69.6008.975 9.3009.07536.400
79.7758.900 9.0509.25036.950
88.9258.550 8.8009.25034.850
Scores on America's Top 100as of 02.20.2019
Year Level Vault Bars Beam Floor AA
2012 79.775
Meet Scores
Date Meet Team Session Level Division Vault Bars Beam Floor AA
2014-04-25 2014 Region 5 Level 8 Championships Flipstar Gymnastics Academy 8 Sr B 8.450 48 7.250 51 8.800 34 8.950 48 33.450 50
2014-03-21 2014 Illinois Level 8, 9, 10 State Championships Flipstar Gymnastics Academy 8 Sr.B 8.625 19 8.350 16 8.250 27 9.000 24 34.225 24
2014-02-21 EGGS Invite Flipstar Gymnastics Academy 5 8 14+yrs 8.600 3 8.550 2 8.450 6T 9.250 2T 34.850 3
2014-02-15 BIG Dream Classic 2014 Flipstar Gymnastics Academy 2B 8 Senior A 8.925 4 7.750 9T 7.975 14 9.100 5 33.750 10
2014-02-07 IGI Chicago Style Gymnastics Meet Flipstar Gymnastics Academy 412 8 14 & Over 8.400 17T 7.400 17 8.125 21 8.200 25 32.125 21
2013-03-22 2013 Illinois Level 8, 9, 10 State Championships Flipstar Gymnastics Academy All 8 Jr.D 8.725 15 6.750 29 8.250 28 8.675 30 32.400 29
2013-02-23 EGGS Invite Flipstar Gymnastics Academy 8 8-12 8.600 4 8.025 6 8.000 8 9.100 3 33.725 6
2013-02-16 BIG Dream Classic 2013 Flipstar Gymnastics Academy 3B 8 Senior A 8.750 8 7.300 14 7.400 15 8.925 12 32.375 15
2013-02-08 IGI Chicago Style Gymnastics Meet Flipstar Gymnastics Academy 132 7 12 Yr Olds 9.750 2T 8.350 15T 7.425 18 8.800 18T 34.325 15
2013-01-12 St. Jude Benefit Meet Flipstar Gymnastics Academy GymB 7 12 9.150 5 7.650 14 7.750 21 8.800 16 33.350 16
2012-11-30 Ultimate Wish Classic 2012 Flipstar Gymnastics Academy 7 L7 Sr A S1 0.000 20 7.800 13 0.000 20 0.000 20 7.800 20
2012-11-09 2012 Illinois Judges Cup Flipstar Gymnastics Academy 3A 7 12 9.275 2 8.625 3 7.950 9 7.650 10 33.500 6
2012-03-16 2012 Illinois Level 6, 7 State Championships Flipstar Gymnastics Academy 7 7 YouthC 9.775 1 8.900 17T 9.025 12 9.250 13T 36.950 12T
2012-02-25 Midwest Open 2012 Flipstar Gymnastics Academy 7B 7 Lvl 7: 11 9.450 5 8.875 7 8.700 11 9.150 8 36.175 7
2012-02-18 BIG Dream Classic 2012 Flipstar Gymnastics Academy 3B 7 Junior B 9.600 2T 8.600 11 9.050 9T 8.925 15 36.175 12
2012-02-10 IGI Chicago Style Gymnastics Flipstar Gymnastics Academy 133 7 11 & Under 9.375 7 8.250 23T 8.600 33 9.000 27T 35.225 24
2012-01-28 2012 King Arthur Invitational Flipstar Gymnastics Academy 3 7 Jr.B 9.650 1 8.450 8 7.550 15 9.150 3 34.800 7
2012-01-06 Crossroads Classic Flipstar Gymnastics Academy All Sessions Combined 7 CH 9.325 2 7.900 9 9.025 3 9.100 7 35.350 5T
2011-12-02 2011 Ultimate Wish Classic Flipstar Gymnastics Academy 3 7 Sr.A 9.600 3 8.375 11 8.000 12 8.900 11 34.875 14
2011-03-25 2011 Illinois Level 6-9-10 State Meet Flipstar Gymnastics Academy 2 6 Jr.B 9.400 3 8.625 8 9.300 9 9.075 10 36.400 9
2011-03-04 Flip'r Meet Flipstar Gymnastics Academy 5 6 11 9.600 1 8.525 8 8.725 10 8.675 5 35.525 6
2011-02-26 Midwest Open Flipstar Gymnastics Academy 7A 6 11 9.375 2 8.750 5 9.300 9 8.600 10 36.025 3
2011-02-19 Big Dream Classic Flipstar Gymnastics Academy 1A 6 11 yrs 9.600 1 7.200 25 9.150 9 8.450 15 34.400 13
2011-02-11 IGI Chicago Style Gymnastics Meet Flipstar Gymnastics Academy 512 6 11 Yr Olds 9.250 4T 8.150 15 8.900 15 8.250 20 34.550 13
2011-01-08 Crossroads Classic Flipstar Gymnastics Academy 3A 6 Ch 9.200 2 8.600 3 8.850 5 7.800 7 34.450 5
2010-12-03 Make a Wish Flipstar Gymnastics Academy 11 6 11 9.500 1 8.975 2 8.700 15T 8.325 18 35.500 5
2010-03-13 2010 Illinois Level 6 and 7 State Championships Flipstar Gymnastics Academy 6 Youth.B 9.500 3 8.650 14 8.600 23 8.775 19 35.525 13
2010-02-27 Midwest Open Flipstar Gymnastics Academy 4B 6 8 to 10 9.425 2 8.500 4 8.250 5 8.550 5 34.725 4
2010-02-20 BIG Dream Classic 2010 Flipstar Gymnastics Academy 4A 6 7 to 9 9.125 3 7.500 9 8.275 10 8.500 12 33.400 10
2010-02-12 IGI Chicago Style Gymnastics Meet Flipstar Gymnastics Academy 533 6 10 & Under 9.025 16 8.300 14 8.900 15T 8.200 23 34.425 15
2010-01-30 The King Arthur Invitational 2010 Flipstar Gymnastics Academy 6 JrA 9.450 1 7.850 15 7.400 18 7.925 18 32.625 16
2010-01-22 Bravo Classic 2010 Flipstar Gymnastics Academy 1B 6 7-9 8.875 5 7.350 17 8.075 12 8.450 13 32.750 13
2009-12-04 Ultimate Wish Classic Flipstar Gymnastics Academy 9 5 Ch9-11 9.375 1 8.500 17T 8.375 33T 8.250 31T 34.500 14
2009-04-03 2009 Illinois Level 5 State Championships Gym Kinetics Sports Complex 1 5 ChildD 9.100 3 9.000 12 8.200 27 8.800 19 35.100 16
2009-02-13 For Love or Money Gym Kinetics Sports Complex LoveGym 5 9 9.375 2 8.675 34T 8.800 49T 8.950 41T 35.800 29
2009-01-17 St. Jude Benefit Meet Gym Kinetics Sports Complex 8 5 Lvl5:7-8 8.600 3 8.750 6 8.850 4 8.750 34.950 4
2008-12-13 St Nick Invite Gym Kinetics Sports Complex 6 5 All 8.550 25 8.600 25 8.350 40 8.000 65 33.500 40
2008-11-22 Thanksgiving Classic Gym Kinetics Sports Complex 5 5 Ch 9 8.750 3 8.725 2 8.025 14 8.500 8T 34.000 4
2008-11-15 Thanks To You Co~Ed Classic Gym Kinetics Sports Complex 3 5 7-9yrs 8.800 2 8.925 1 7.400 29 8.000 16 33.125 8
2008-02-09 For Love or Money 2008 Gym Kinetics Sports Complex LoveGym 4 6 to 7 9.500 8T 8.850 24T 8.575 29 9.250 16T 36.175 16T
2008-02-09 For Love or Money 2008 Gym Kinetics Sports Complex MoneyGym 4 6 to 7 0.000 1T 0.000 1T 0.000 1T 0.000 1T 0.000 1T

www.lazysuits.com